sensor_id;sensor_type;location;lat;lon;timestamp;temperature;humidity
29725;DHT22;16636;48.394;15.468;2022-11-11T00:00:38;6.50;99.90
29725;DHT22;16636;48.394;15.468;2022-11-11T00:03:22;6.50;99.90
29725;DHT22;16636;48.394;15.468;2022-11-11T00:06:13;6.60;99.90
29725;DHT22;16636;48.394;15.468;2022-11-11T00:08:57;6.60;99.90
29725;DHT22;16636;48.394;15.468;2022-11-11T00:11:42;6.60;99.90
29725;DHT22;16636;48.394;15.468;2022-11-11T00:14:27;6.60;99.90
29725;DHT22;16636;48.394;15.468;2022-11-11T00:17:12;6.50;99.90
29725;DHT22;16636;48.394;15.468;2022-11-11T00:20:32;6.60;99.90
29725;DHT22;16636;48.394;15.468;2022-11-11T00:23:35;6.50;99.90
29725;DHT22;16636;48.394;15.468;2022-11-11T00:26:38;6.50;99.90
29725;DHT22;16636;48.394;15.468;2022-11-11T00:29:23;6.60;99.90
29725;DHT22;16636;48.394;15.468;2022-11-11T00:32:08;6.70;99.90
29725;DHT22;16636;48.394;15.468;2022-11-11T00:35:10;6.70;99.90
29725;DHT22;16636;48.394;15.468;2022-11-11T00:38:13;6.70;99.90
29725;DHT22;16636;48.394;15.468;2022-11-11T00:41:21;6.70;99.90
29725;DHT22;16636;48.394;15.468;2022-11-11T00:44:06;6.70;99.90
29725;DHT22;16636;48.394;15.468;2022-11-11T00:46:51;6.70;99.90
29725;DHT22;16636;48.394;15.468;2022-11-11T00:49:54;6.70;99.90
29725;DHT22;16636;48.394;15.468;2022-11-11T00:53:31;6.70;99.90
29725;DHT22;16636;48.394;15.468;2022-11-11T00:56:16;6.70;99.90
29725;DHT22;16636;48.394;15.468;2022-11-11T00:59:19;6.70;99.90
29725;DHT22;16636;48.394;15.468;2022-11-11T01:02:04;6.70;99.90
29725;DHT22;16636;48.394;15.468;2022-11-11T01:04:48;6.70;99.90
29725;DHT22;16636;48.394;15.468;2022-11-11T01:07:33;6.70;99.90
29725;DHT22;16636;48.394;15.468;2022-11-11T01:10:18;6.70;99.90
29725;DHT22;16636;48.394;15.468;2022-11-11T01:13:29;6.70;99.90
29725;DHT22;16636;48.394;15.468;2022-11-11T01:16:20;6.70;99.90
29725;DHT22;16636;48.394;15.468;2022-11-11T01:19:05;6.70;99.90
29725;DHT22;16636;48.394;15.468;2022-11-11T01:21:49;6.70;99.90
29725;DHT22;16636;48.394;15.468;2022-11-11T01:24:36;6.60;99.90
29725;DHT22;16636;48.394;15.468;2022-11-11T01:27:21;6.70;99.90
29725;DHT22;16636;48.394;15.468;2022-11-11T01:30:06;6.70;99.90
29725;DHT22;16636;48.394;15.468;2022-11-11T01:32:50;6.60;99.90
29725;DHT22;16636;48.394;15.468;2022-11-11T01:35:39;6.60;99.90
29725;DHT22;16636;48.394;15.468;2022-11-11T01:38:24;6.50;99.90
29725;DHT22;16636;48.394;15.468;2022-11-11T01:41:12;6.50;99.90
29725;DHT22;16636;48.394;15.468;2022-11-11T01:47:44;6.40;99.90
29725;DHT22;16636;48.394;15.468;2022-11-11T01:50:47;6.40;99.90
29725;DHT22;16636;48.394;15.468;2022-11-11T01:53:32;6.40;99.90
29725;DHT22;16636;48.394;15.468;2022-11-11T01:56:17;6.50;99.90
29725;DHT22;16636;48.394;15.468;2022-11-11T01:59:06;6.50;99.90
29725;DHT22;16636;48.394;15.468;2022-11-11T02:01:52;6.50;99.90
29725;DHT22;16636;48.394;15.468;2022-11-11T02:04:54;6.50;99.90
29725;DHT22;16636;48.394;15.468;2022-11-11T02:08:09;6.40;99.90
29725;DHT22;16636;48.394;15.468;2022-11-11T02:10:54;6.50;99.90
29725;DHT22;16636;48.394;15.468;2022-11-11T02:13:41;6.40;99.90
29725;DHT22;16636;48.394;15.468;2022-11-11T02:16:45;6.40;99.90
29725;DHT22;16636;48.394;15.468;2022-11-11T02:19:49;6.40;99.90
29725;DHT22;16636;48.394;15.468;2022-11-11T02:22:54;6.40;99.90
29725;DHT22;16636;48.394;15.468;2022-11-11T02:25:44;6.50;99.90
29725;DHT22;16636;48.394;15.468;2022-11-11T02:28:31;6.50;99.90
29725;DHT22;16636;48.394;15.468;2022-11-11T02:31:17;6.50;99.90
29725;DHT22;16636;48.394;15.468;2022-11-11T02:34:02;6.40;99.90
29725;DHT22;16636;48.394;15.468;2022-11-11T02:36:47;6.30;99.90
29725;DHT22;16636;48.394;15.468;2022-11-11T02:39:34;6.20;99.90
29725;DHT22;16636;48.394;15.468;2022-11-11T02:42:20;6.20;99.90
29725;DHT22;16636;48.394;15.468;2022-11-11T02:45:05;6.20;99.90
29725;DHT22;16636;48.394;15.468;2022-11-11T02:47:50;6.20;99.90
29725;DHT22;16636;48.394;15.468;2022-11-11T02:50:34;6.20;99.90
29725;DHT22;16636;48.394;15.468;2022-11-11T02:53:18;6.20;99.90
29725;DHT22;16636;48.394;15.468;2022-11-11T02:56:03;6.20;99.90
29725;DHT22;16636;48.394;15.468;2022-11-11T02:58:47;6.20;99.90
29725;DHT22;16636;48.394;15.468;2022-11-11T03:01:32;6.20;99.90
29725;DHT22;16636;48.394;15.468;2022-11-11T03:04:16;6.20;99.90
29725;DHT22;16636;48.394;15.468;2022-11-11T03:07:01;6.20;99.90
29725;DHT22;16636;48.394;15.468;2022-11-11T03:09:45;6.20;99.90
29725;DHT22;16636;48.394;15.468;2022-11-11T03:12:29;6.20;99.90
29725;DHT22;16636;48.394;15.468;2022-11-11T03:15:15;6.20;99.90
29725;DHT22;16636;48.394;15.468;2022-11-11T03:18:00;6.20;99.90
29725;DHT22;16636;48.394;15.468;2022-11-11T03:20:44;6.20;99.90
29725;DHT22;16636;48.394;15.468;2022-11-11T03:23:48;6.20;99.90
29725;DHT22;16636;48.394;15.468;2022-11-11T03:26:32;6.10;99.90
29725;DHT22;16636;48.394;15.468;2022-11-11T03:29:17;6.00;99.90
29725;DHT22;16636;48.394;15.468;2022-11-11T03:32:01;6.10;99.90
29725;DHT22;16636;48.394;15.468;2022-11-11T03:34:46;6.10;99.90
29725;DHT22;16636;48.394;15.468;2022-11-11T03:37:30;6.10;99.90
29725;DHT22;16636;48.394;15.468;2022-11-11T03:40:34;6.10;99.90
29725;DHT22;16636;48.394;15.468;2022-11-11T03:43:19;6.10;99.90
29725;DHT22;16636;48.394;15.468;2022-11-11T03:46:04;6.00;99.90
29725;DHT22;16636;48.394;15.468;2022-11-11T03:48:49;6.00;99.90
29725;DHT22;16636;48.394;15.468;2022-11-11T03:51:34;6.00;99.90
29725;DHT22;16636;48.394;15.468;2022-11-11T03:54:18;6.00;99.90
29725;DHT22;16636;48.394;15.468;2022-11-11T03:57:03;6.00;99.90
29725;DHT22;16636;48.394;15.468;2022-11-11T04:00:07;6.00;99.90
29725;DHT22;16636;48.394;15.468;2022-11-11T04:03:01;6.00;99.90
29725;DHT22;16636;48.394;15.468;2022-11-11T04:06:07;5.90;99.90
29725;DHT22;16636;48.394;15.468;2022-11-11T04:09:11;5.90;99.90
29725;DHT22;16636;48.394;15.468;2022-11-11T04:12:14;5.90;99.90
29725;DHT22;16636;48.394;15.468;2022-11-11T04:14:59;5.90;99.90
29725;DHT22;16636;48.394;15.468;2022-11-11T04:18:03;5.90;99.90
29725;DHT22;16636;48.394;15.468;2022-11-11T04:20:47;5.90;99.90
29725;DHT22;16636;48.394;15.468;2022-11-11T04:23:50;5.90;99.90
29725;DHT22;16636;48.394;15.468;2022-11-11T04:26:35;5.90;99.90
29725;DHT22;16636;48.394;15.468;2022-11-11T04:29:20;5.90;99.90
29725;DHT22;16636;48.394;15.468;2022-11-11T04:32:16;5.90;99.90
29725;DHT22;16636;48.394;15.468;2022-11-11T04:35:19;5.90;99.90
29725;DHT22;16636;48.394;15.468;2022-11-11T04:38:03;5.90;99.90
29725;DHT22;16636;48.394;15.468;2022-11-11T04:41:08;6.00;99.90
29725;DHT22;16636;48.394;15.468;2022-11-11T04:43:54;6.00;99.90
29725;DHT22;16636;48.394;15.468;2022-11-11T04:46:57;6.00;99.90
29725;DHT22;16636;48.394;15.468;2022-11-11T04:49:42;6.00;99.90
29725;DHT22;16636;48.394;15.468;2022-11-11T04:52:26;6.00;99.90
29725;DHT22;16636;48.394;15.468;2022-11-11T04:55:11;6.00;99.90
29725;DHT22;16636;48.394;15.468;2022-11-11T04:58:16;6.00;99.90
29725;DHT22;16636;48.394;15.468;2022-11-11T05:01:01;5.90;99.90
29725;DHT22;16636;48.394;15.468;2022-11-11T05:03:46;5.90;99.90
29725;DHT22;16636;48.394;15.468;2022-11-11T05:06:31;5.90;99.90
29725;DHT22;16636;48.394;15.468;2022-11-11T05:09:34;5.90;99.90
29725;DHT22;16636;48.394;15.468;2022-11-11T05:12:18;5.90;99.90
29725;DHT22;16636;48.394;15.468;2022-11-11T05:15:02;5.80;99.90
29725;DHT22;16636;48.394;15.468;2022-11-11T05:18:05;5.80;99.90
29725;DHT22;16636;48.394;15.468;2022-11-11T05:21:24;5.80;99.90
29725;DHT22;16636;48.394;15.468;2022-11-11T05:24:10;5.80;99.90
29725;DHT22;16636;48.394;15.468;2022-11-11T05:27:13;5.80;99.90
29725;DHT22;16636;48.394;15.468;2022-11-11T05:29:57;5.90;99.90
29725;DHT22;16636;48.394;15.468;2022-11-11T05:32:43;5.90;99.90
29725;DHT22;16636;48.394;15.468;2022-11-11T05:35:27;5.90;99.90
29725;DHT22;16636;48.394;15.468;2022-11-11T05:38:12;5.90;99.90
29725;DHT22;16636;48.394;15.468;2022-11-11T05:41:06;5.90;99.90
29725;DHT22;16636;48.394;15.468;2022-11-11T05:43:51;5.90;99.90
29725;DHT22;16636;48.394;15.468;2022-11-11T05:46:36;5.90;99.90
29725;DHT22;16636;48.394;15.468;2022-11-11T05:49:21;5.90;99.90
29725;DHT22;16636;48.394;15.468;2022-11-11T05:52:06;5.90;99.90
29725;DHT22;16636;48.394;15.468;2022-11-11T05:54:50;5.90;99.90
29725;DHT22;16636;48.394;15.468;2022-11-11T05:57:35;5.90;99.90
29725;DHT22;16636;48.394;15.468;2022-11-11T06:00:19;5.90;99.90
29725;DHT22;16636;48.394;15.468;2022-11-11T06:03:04;5.90;99.90
29725;DHT22;16636;48.394;15.468;2022-11-11T06:05:49;5.90;99.90
29725;DHT22;16636;48.394;15.468;2022-11-11T06:08:35;5.90;99.90
29725;DHT22;16636;48.394;15.468;2022-11-11T06:11:19;5.90;99.90
29725;DHT22;16636;48.394;15.468;2022-11-11T06:14:05;5.90;99.90
29725;DHT22;16636;48.394;15.468;2022-11-11T06:16:49;5.90;99.90
29725;DHT22;16636;48.394;15.468;2022-11-11T06:19:34;6.00;99.90
29725;DHT22;16636;48.394;15.468;2022-11-11T06:22:18;6.00;99.90
29725;DHT22;16636;48.394;15.468;2022-11-11T06:25:27;5.90;99.90
29725;DHT22;16636;48.394;15.468;2022-11-11T06:28:31;5.90;99.90
29725;DHT22;16636;48.394;15.468;2022-11-11T06:31:24;5.90;99.90
29725;DHT22;16636;48.394;15.468;2022-11-11T06:34:09;5.90;99.90
29725;DHT22;16636;48.394;15.468;2022-11-11T06:36:53;5.90;99.90
29725;DHT22;16636;48.394;15.468;2022-11-11T06:39:37;5.90;99.90
29725;DHT22;16636;48.394;15.468;2022-11-11T06:42:28;5.80;99.90
29725;DHT22;16636;48.394;15.468;2022-11-11T06:45:12;5.90;99.90
29725;DHT22;16636;48.394;15.468;2022-11-11T06:47:57;5.90;99.90
29725;DHT22;16636;48.394;15.468;2022-11-11T06:50:41;5.90;99.90
29725;DHT22;16636;48.394;15.468;2022-11-11T06:53:25;5.90;99.90
29725;DHT22;16636;48.394;15.468;2022-11-11T06:56:12;5.90;99.90
29725;DHT22;16636;48.394;15.468;2022-11-11T06:58:56;5.90;99.90
29725;DHT22;16636;48.394;15.468;2022-11-11T07:01:40;5.90;99.90
29725;DHT22;16636;48.394;15.468;2022-11-11T07:04:25;5.90;99.90
29725;DHT22;16636;48.394;15.468;2022-11-11T07:07:10;5.90;99.90
29725;DHT22;16636;48.394;15.468;2022-11-11T07:09:54;5.90;99.90
29725;DHT22;16636;48.394;15.468;2022-11-11T07:12:42;5.90;99.90
29725;DHT22;16636;48.394;15.468;2022-11-11T07:15:26;5.90;99.90
29725;DHT22;16636;48.394;15.468;2022-11-11T07:18:11;5.90;99.90
29725;DHT22;16636;48.394;15.468;2022-11-11T07:20:55;5.80;99.90
29725;DHT22;16636;48.394;15.468;2022-11-11T07:23:40;5.80;99.90
29725;DHT22;16636;48.394;15.468;2022-11-11T07:26:24;5.80;99.90
29725;DHT22;16636;48.394;15.468;2022-11-11T07:29:09;5.80;99.90
29725;DHT22;16636;48.394;15.468;2022-11-11T07:32:23;5.80;99.90
29725;DHT22;16636;48.394;15.468;2022-11-11T07:35:07;5.80;99.90
29725;DHT22;16636;48.394;15.468;2022-11-11T07:37:53;5.80;99.90
29725;DHT22;16636;48.394;15.468;2022-11-11T07:40:37;5.90;99.90
29725;DHT22;16636;48.394;15.468;2022-11-11T07:43:22;5.90;99.90
29725;DHT22;16636;48.394;15.468;2022-11-11T07:46:08;6.00;99.90
29725;DHT22;16636;48.394;15.468;2022-11-11T07:48:53;6.00;99.90
29725;DHT22;16636;48.394;15.468;2022-11-11T07:51:37;6.00;99.90
29725;DHT22;16636;48.394;15.468;2022-11-11T07:54:22;6.00;99.90
29725;DHT22;16636;48.394;15.468;2022-11-11T07:57:07;5.90;99.90
29725;DHT22;16636;48.394;15.468;2022-11-11T07:59:51;5.90;99.90
29725;DHT22;16636;48.394;15.468;2022-11-11T08:02:35;5.90;99.90
29725;DHT22;16636;48.394;15.468;2022-11-11T08:05:20;5.90;99.90
29725;DHT22;16636;48.394;15.468;2022-11-11T08:08:05;6.00;99.90
29725;DHT22;16636;48.394;15.468;2022-11-11T08:10:54;6.00;99.90
29725;DHT22;16636;48.394;15.468;2022-11-11T08:13:39;6.10;99.90
29725;DHT22;16636;48.394;15.468;2022-11-11T08:16:23;6.10;99.90
29725;DHT22;16636;48.394;15.468;2022-11-11T08:19:08;6.10;99.90
29725;DHT22;16636;48.394;15.468;2022-11-11T08:21:53;6.20;99.90
29725;DHT22;16636;48.394;15.468;2022-11-11T08:24:37;6.20;99.90
29725;DHT22;16636;48.394;15.468;2022-11-11T08:27:21;6.30;99.90
29725;DHT22;16636;48.394;15.468;2022-11-11T08:30:07;6.30;99.90
29725;DHT22;16636;48.394;15.468;2022-11-11T08:32:59;6.40;99.90
29725;DHT22;16636;48.394;15.468;2022-11-11T08:35:44;6.60;99.90
29725;DHT22;16636;48.394;15.468;2022-11-11T08:38:28;6.60;99.90
29725;DHT22;16636;48.394;15.468;2022-11-11T08:41:12;6.70;99.90
29725;DHT22;16636;48.394;15.468;2022-11-11T08:43:57;6.80;99.90
29725;DHT22;16636;48.394;15.468;2022-11-11T08:46:44;6.90;99.90
29725;DHT22;16636;48.394;15.468;2022-11-11T08:49:28;7.10;99.90
29725;DHT22;16636;48.394;15.468;2022-11-11T08:52:13;7.20;99.90
29725;DHT22;16636;48.394;15.468;2022-11-11T08:54:57;7.20;99.90
29725;DHT22;16636;48.394;15.468;2022-11-11T08:57:44;7.40;99.90
29725;DHT22;16636;48.394;15.468;2022-11-11T09:00:29;7.50;99.90
29725;DHT22;16636;48.394;15.468;2022-11-11T09:03:13;7.50;99.90
29725;DHT22;16636;48.394;15.468;2022-11-11T09:05:58;7.50;99.90
29725;DHT22;16636;48.394;15.468;2022-11-11T09:08:43;7.70;99.90
29725;DHT22;16636;48.394;15.468;2022-11-11T09:11:27;7.70;99.90
29725;DHT22;16636;48.394;15.468;2022-11-11T09:14:19;7.70;99.90
29725;DHT22;16636;48.394;15.468;2022-11-11T09:17:04;7.70;99.90
29725;DHT22;16636;48.394;15.468;2022-11-11T09:19:49;7.70;99.90
29725;DHT22;16636;48.394;15.468;2022-11-11T09:22:41;7.80;99.90
29725;DHT22;16636;48.394;15.468;2022-11-11T09:25:26;7.80;99.90
29725;DHT22;16636;48.394;15.468;2022-11-11T09:28:10;7.90;99.90
29725;DHT22;16636;48.394;15.468;2022-11-11T09:30:54;7.90;99.90
29725;DHT22;16636;48.394;15.468;2022-11-11T09:33:39;8.00;99.90
29725;DHT22;16636;48.394;15.468;2022-11-11T09:36:23;8.10;99.90
29725;DHT22;16636;48.394;15.468;2022-11-11T09:39:08;8.10;99.90
29725;DHT22;16636;48.394;15.468;2022-11-11T09:48:51;8.30;99.90
29725;DHT22;16636;48.394;15.468;2022-11-11T09:54:54;8.50;99.90
29725;DHT22;16636;48.394;15.468;2022-11-11T09:57:50;8.60;99.90
29725;DHT22;16636;48.394;15.468;2022-11-11T10:04:23;9.00;99.90
29725;DHT22;16636;48.394;15.468;2022-11-11T10:10:22;9.10;99.90
29725;DHT22;16636;48.394;15.468;2022-11-11T10:13:32;9.10;99.90
29725;DHT22;16636;48.394;15.468;2022-11-11T10:22:35;9.40;99.90
29725;DHT22;16636;48.394;15.468;2022-11-11T10:25:24;9.50;99.90
29725;DHT22;16636;48.394;15.468;2022-11-11T10:28:14;9.60;99.90
29725;DHT22;16636;48.394;15.468;2022-11-11T10:31:02;9.80;99.90
29725;DHT22;16636;48.394;15.468;2022-11-11T10:33:52;9.80;99.90
29725;DHT22;16636;48.394;15.468;2022-11-11T10:36:49;9.80;99.90
29725;DHT22;16636;48.394;15.468;2022-11-11T10:39:57;9.80;99.90
29725;DHT22;16636;48.394;15.468;2022-11-11T10:42:44;9.70;99.90
29725;DHT22;16636;48.394;15.468;2022-11-11T10:51:42;9.90;99.90
29725;DHT22;16636;48.394;15.468;2022-11-11T11:00:15;10.00;99.90
29725;DHT22;16636;48.394;15.468;2022-11-11T11:06:19;10.00;99.90
29725;DHT22;16636;48.394;15.468;2022-11-11T11:09:20;10.00;99.90
29725;DHT22;16636;48.394;15.468;2022-11-11T11:15:03;10.00;99.90
29725;DHT22;16636;48.394;15.468;2022-11-11T11:18:04;10.00;99.90
29725;DHT22;16636;48.394;15.468;2022-11-11T11:21:01;10.00;99.90
29725;DHT22;16636;48.394;15.468;2022-11-11T11:23:46;10.00;99.90
29725;DHT22;16636;48.394;15.468;2022-11-11T11:26:49;10.00;99.90
29725;DHT22;16636;48.394;15.468;2022-11-11T11:29:43;10.00;99.90
29725;DHT22;16636;48.394;15.468;2022-11-11T11:32:29;10.00;99.90
29725;DHT22;16636;48.394;15.468;2022-11-11T11:38:20;10.00;99.90
29725;DHT22;16636;48.394;15.468;2022-11-11T11:41:04;10.00;99.90
29725;DHT22;16636;48.394;15.468;2022-11-11T11:43:49;10.10;99.90
29725;DHT22;16636;48.394;15.468;2022-11-11T11:46:38;10.00;99.90
29725;DHT22;16636;48.394;15.468;2022-11-11T11:49:42;10.00;99.90
29725;DHT22;16636;48.394;15.468;2022-11-11T11:55:45;10.10;99.90
29725;DHT22;16636;48.394;15.468;2022-11-11T11:58:53;10.20;99.90
29725;DHT22;16636;48.394;15.468;2022-11-11T12:11:29;10.30;99.90
29725;DHT22;16636;48.394;15.468;2022-11-11T12:20:35;10.60;99.90
29725;DHT22;16636;48.394;15.468;2022-11-11T12:29:37;10.70;99.90
29725;DHT22;16636;48.394;15.468;2022-11-11T12:35:46;10.70;99.90
29725;DHT22;16636;48.394;15.468;2022-11-11T12:44:38;10.70;99.90
29725;DHT22;16636;48.394;15.468;2022-11-11T12:47:26;10.70;99.90
29725;DHT22;16636;48.394;15.468;2022-11-11T13:14:50;10.80;99.90
29725;DHT22;16636;48.394;15.468;2022-11-11T13:17:38;10.90;99.90
29725;DHT22;16636;48.394;15.468;2022-11-11T13:23:10;10.90;99.90
29725;DHT22;16636;48.394;15.468;2022-11-11T13:26:11;10.80;99.90
29725;DHT22;16636;48.394;15.468;2022-11-11T13:32:00;10.70;99.90
29725;DHT22;16636;48.394;15.468;2022-11-11T13:34:46;10.60;99.90
29725;DHT22;16636;48.394;15.468;2022-11-11T13:37:32;10.60;99.90
29725;DHT22;16636;48.394;15.468;2022-11-11T13:43:35;10.50;99.90
29725;DHT22;16636;48.394;15.468;2022-11-11T13:46:33;10.50;99.90
29725;DHT22;16636;48.394;15.468;2022-11-11T13:53:00;10.40;99.90
29725;DHT22;16636;48.394;15.468;2022-11-11T13:55:45;10.40;99.90
29725;DHT22;16636;48.394;15.468;2022-11-11T13:58:34;10.40;99.90
29725;DHT22;16636;48.394;15.468;2022-11-11T14:01:19;10.40;99.90
29725;DHT22;16636;48.394;15.468;2022-11-11T14:04:08;10.40;99.90
29725;DHT22;16636;48.394;15.468;2022-11-11T14:06:53;10.40;99.90
29725;DHT22;16636;48.394;15.468;2022-11-11T14:09:54;10.40;99.90
29725;DHT22;16636;48.394;15.468;2022-11-11T14:15:51;10.40;99.90
29725;DHT22;16636;48.394;15.468;2022-11-11T14:18:38;10.40;99.90
29725;DHT22;16636;48.394;15.468;2022-11-11T14:21:49;10.40;99.90
29725;DHT22;16636;48.394;15.468;2022-11-11T14:27:28;10.30;99.90
29725;DHT22;16636;48.394;15.468;2022-11-11T14:30:36;10.30;99.90
29725;DHT22;16636;48.394;15.468;2022-11-11T14:33:39;10.30;99.90
29725;DHT22;16636;48.394;15.468;2022-11-11T14:39:38;10.30;99.90
29725;DHT22;16636;48.394;15.468;2022-11-11T14:48:49;10.30;99.90
29725;DHT22;16636;48.394;15.468;2022-11-11T14:54:29;10.20;99.90
29725;DHT22;16636;48.394;15.468;2022-11-11T14:57:28;10.20;99.90
29725;DHT22;16636;48.394;15.468;2022-11-11T15:00:25;10.10;99.90
29725;DHT22;16636;48.394;15.468;2022-11-11T15:03:14;10.10;99.90
29725;DHT22;16636;48.394;15.468;2022-11-11T15:06:25;10.10;99.90
29725;DHT22;16636;48.394;15.468;2022-11-11T15:15:26;9.90;99.90
29725;DHT22;16636;48.394;15.468;2022-11-11T15:24:27;9.80;99.90
29725;DHT22;16636;48.394;15.468;2022-11-11T15:27:23;9.70;99.90
29725;DHT22;16636;48.394;15.468;2022-11-11T15:30:14;9.70;99.90
29725;DHT22;16636;48.394;15.468;2022-11-11T15:36:27;9.60;99.90
29725;DHT22;16636;48.394;15.468;2022-11-11T15:39:12;9.60;99.90
29725;DHT22;16636;48.394;15.468;2022-11-11T15:42:29;9.60;99.90
29725;DHT22;16636;48.394;15.468;2022-11-11T15:48:03;9.50;99.90
29725;DHT22;16636;48.394;15.468;2022-11-11T15:50:48;9.50;99.90
29725;DHT22;16636;48.394;15.468;2022-11-11T15:53:33;9.50;99.90
29725;DHT22;16636;48.394;15.468;2022-11-11T15:56:31;9.50;99.90
29725;DHT22;16636;48.394;15.468;2022-11-11T15:59:21;9.40;99.90
29725;DHT22;16636;48.394;15.468;2022-11-11T16:02:13;9.40;99.90
29725;DHT22;16636;48.394;15.468;2022-11-11T16:05:06;9.40;99.90
29725;DHT22;16636;48.394;15.468;2022-11-11T16:08:01;9.40;99.90
29725;DHT22;16636;48.394;15.468;2022-11-11T16:10:57;9.30;99.90
29725;DHT22;16636;48.394;15.468;2022-11-11T16:13:51;9.20;99.90
29725;DHT22;16636;48.394;15.468;2022-11-11T16:16:39;9.10;99.90
29725;DHT22;16636;48.394;15.468;2022-11-11T16:19:32;9.00;99.90
29725;DHT22;16636;48.394;15.468;2022-11-11T16:22:24;9.00;99.90
29725;DHT22;16636;48.394;15.468;2022-11-11T16:25:29;8.90;99.90
29725;DHT22;16636;48.394;15.468;2022-11-11T16:28:15;8.80;99.90
29725;DHT22;16636;48.394;15.468;2022-11-11T16:31:40;8.80;99.90
29725;DHT22;16636;48.394;15.468;2022-11-11T16:37:15;8.70;99.90
29725;DHT22;16636;48.394;15.468;2022-11-11T16:43:21;8.90;99.90
29725;DHT22;16636;48.394;15.468;2022-11-11T16:46:09;8.80;99.90
29725;DHT22;16636;48.394;15.468;2022-11-11T16:48:58;8.90;99.90
29725;DHT22;16636;48.394;15.468;2022-11-11T16:51:44;8.90;99.90
29725;DHT22;16636;48.394;15.468;2022-11-11T16:54:32;8.90;99.90
29725;DHT22;16636;48.394;15.468;2022-11-11T16:57:29;8.90;99.90
29725;DHT22;16636;48.394;15.468;2022-11-11T17:00:18;8.80;99.90
29725;DHT22;16636;48.394;15.468;2022-11-11T17:03:14;8.70;99.90
29725;DHT22;16636;48.394;15.468;2022-11-11T17:06:06;8.70;99.90
29725;DHT22;16636;48.394;15.468;2022-11-11T17:08:52;8.60;99.90
29725;DHT22;16636;48.394;15.468;2022-11-11T17:14:32;8.50;99.90
29725;DHT22;16636;48.394;15.468;2022-11-11T17:17:24;8.50;99.90
29725;DHT22;16636;48.394;15.468;2022-11-11T17:20:18;8.50;99.90
29725;DHT22;16636;48.394;15.468;2022-11-11T17:23:11;8.50;99.90
29725;DHT22;16636;48.394;15.468;2022-11-11T17:26:02;8.50;99.90
29725;DHT22;16636;48.394;15.468;2022-11-11T17:28:55;8.40;99.90
29725;DHT22;16636;48.394;15.468;2022-11-11T17:31:46;8.40;99.90
29725;DHT22;16636;48.394;15.468;2022-11-11T17:34:37;8.40;99.90
29725;DHT22;16636;48.394;15.468;2022-11-11T17:37:28;8.40;99.90
29725;DHT22;16636;48.394;15.468;2022-11-11T17:40:19;8.40;99.90
29725;DHT22;16636;48.394;15.468;2022-11-11T17:43:10;8.40;99.90
29725;DHT22;16636;48.394;15.468;2022-11-11T17:46:02;8.40;99.90
29725;DHT22;16636;48.394;15.468;2022-11-11T17:48:55;8.40;99.90
29725;DHT22;16636;48.394;15.468;2022-11-11T17:51:46;8.40;99.90
29725;DHT22;16636;48.394;15.468;2022-11-11T17:54:37;8.30;99.90
29725;DHT22;16636;48.394;15.468;2022-11-11T17:57:28;8.30;99.90
29725;DHT22;16636;48.394;15.468;2022-11-11T18:00:19;8.30;99.90
29725;DHT22;16636;48.394;15.468;2022-11-11T18:03:09;8.30;99.90
29725;DHT22;16636;48.394;15.468;2022-11-11T18:06:01;8.30;99.90
29725;DHT22;16636;48.394;15.468;2022-11-11T18:08:52;8.30;99.90
29725;DHT22;16636;48.394;15.468;2022-11-11T18:11:43;8.20;99.90
29725;DHT22;16636;48.394;15.468;2022-11-11T18:14:33;8.20;99.90
29725;DHT22;16636;48.394;15.468;2022-11-11T18:17:25;8.20;99.90
29725;DHT22;16636;48.394;15.468;2022-11-11T18:20:16;8.10;99.90
29725;DHT22;16636;48.394;15.468;2022-11-11T18:23:07;8.20;99.90
29725;DHT22;16636;48.394;15.468;2022-11-11T18:26:23;8.20;99.90
29725;DHT22;16636;48.394;15.468;2022-11-11T18:29:14;8.20;99.90
29725;DHT22;16636;48.394;15.468;2022-11-11T18:32:05;8.20;99.90
29725;DHT22;16636;48.394;15.468;2022-11-11T18:34:56;8.20;99.90
29725;DHT22;16636;48.394;15.468;2022-11-11T18:37:47;8.20;99.90
29725;DHT22;16636;48.394;15.468;2022-11-11T18:40:38;8.20;99.90
29725;DHT22;16636;48.394;15.468;2022-11-11T18:43:33;8.20;99.90
29725;DHT22;16636;48.394;15.468;2022-11-11T18:46:27;8.20;99.90
29725;DHT22;16636;48.394;15.468;2022-11-11T18:49:21;8.20;99.90
29725;DHT22;16636;48.394;15.468;2022-11-11T18:52:12;8.20;99.90
29725;DHT22;16636;48.394;15.468;2022-11-11T18:55:03;8.20;99.90
29725;DHT22;16636;48.394;15.468;2022-11-11T18:57:55;8.20;99.90
29725;DHT22;16636;48.394;15.468;2022-11-11T19:00:46;8.20;99.90
29725;DHT22;16636;48.394;15.468;2022-11-11T19:03:38;8.20;99.90
29725;DHT22;16636;48.394;15.468;2022-11-11T19:06:32;8.10;99.90
29725;DHT22;16636;48.394;15.468;2022-11-11T19:09:24;8.00;99.90
29725;DHT22;16636;48.394;15.468;2022-11-11T19:12:16;8.00;99.90
